createdAt,value
2023-04-18T00:00:49.678Z,95483.91
2023-04-18T00:03:16.657Z,95475.25
2023-04-18T00:05:43.990Z,95475.41
2023-04-18T00:08:10.715Z,95472.63
2023-04-18T00:10:37.258Z,95472.78
2023-04-18T00:13:03.843Z,95470.47
2023-04-18T00:15:31.175Z,95476.22
2023-04-18T00:17:57.816Z,95472.25
2023-04-18T00:20:26.112Z,95468.66
2023-04-18T00:22:53.229Z,95457.91
2023-04-18T00:25:19.828Z,95464.59
2023-04-18T00:27:46.416Z,95455.22
2023-04-18T00:30:13.179Z,95458.41
2023-04-18T00:32:39.748Z,95472.88
2023-04-18T00:35:07.170Z,95466.28
2023-04-18T00:37:33.714Z,95471.97
2023-04-18T00:40:00.271Z,95462.38
2023-04-18T00:42:29.271Z,95466.28
2023-04-18T00:44:55.931Z,95462.53
2023-04-18T00:47:22.695Z,95463.72
2023-04-18T00:49:49.722Z,95469.69
2023-04-18T00:52:18.379Z,95466.63
2023-04-18T00:54:45.423Z,95462.69
2023-04-18T00:57:12.757Z,95461.03
2023-04-18T00:59:39.499Z,95457.06
2023-04-18T01:02:07.715Z,95463.03
2023-04-18T01:04:34.386Z,95464.97
2023-04-18T01:07:02.102Z,95474.66
2023-04-18T01:09:29.425Z,95462.16
2023-04-18T01:11:56.164Z,95455.41
2023-04-18T01:14:23.287Z,95463.66
2023-04-18T01:16:49.886Z,95462.53
2023-04-18T01:19:18.673Z,95456.09
2023-04-18T01:21:45.428Z,95455.44
2023-04-18T01:24:15.619Z,95454.28
2023-04-18T01:26:44.056Z,95449.66
2023-04-18T01:29:11.220Z,95450.03
2023-04-18T01:31:38.584Z,95450.13
2023-04-18T01:34:07.366Z,95453.44
2023-04-18T01:36:35.197Z,95456.28
2023-04-18T01:39:02.247Z,95453.63
2023-04-18T01:41:32.265Z,95448.47
2023-04-18T01:43:59.655Z,95452.97
2023-04-18T01:46:26.399Z,95445.53
2023-04-18T01:48:53.722Z,95453.31
2023-04-18T01:51:21.396Z,95447.84
2023-04-18T01:53:48.087Z,95449.47
2023-04-18T01:56:14.733Z,95443.22
2023-04-18T01:58:41.682Z,95449.34
2023-04-18T02:01:08.578Z,95439.38
2023-04-18T02:03:35.424Z,95447.91
2023-04-18T02:06:04.023Z,95441.38
2023-04-18T02:08:32.924Z,95449.91
2023-04-18T02:11:01.230Z,95443.91
2023-04-18T02:13:28.351Z,95442.84
2023-04-18T02:15:54.885Z,95440.19
2023-04-18T02:18:24.633Z,95445.88
2023-04-18T02:20:51.910Z,95440.50
2023-04-18T02:23:18.805Z,95447.88
2023-04-18T02:25:45.678Z,95447.41
2023-04-18T02:28:12.263Z,95451.19
2023-04-18T02:30:38.843Z,95454.66
2023-04-18T02:33:05.463Z,95446.13
2023-04-18T02:35:32.091Z,95452.69
2023-04-18T02:37:58.602Z,95449.41
2023-04-18T02:40:25.134Z,95446.94
2023-04-18T02:42:51.730Z,95450.44
2023-04-18T02:45:18.387Z,95449.75
2023-04-18T02:47:54.467Z,95453.84
2023-04-18T02:50:22.575Z,95454.66
2023-04-18T02:52:49.241Z,95448.16
2023-04-18T02:55:18.118Z,95456.72
2023-04-18T02:57:45.773Z,95446.31
2023-04-18T03:00:38.517Z,95450.63
2023-04-18T03:03:25.801Z,95445.22
2023-04-18T03:06:18.508Z,95448.94
2023-04-18T03:08:45.260Z,95446.97
2023-04-18T03:11:12.641Z,95444.38
2023-04-18T03:13:39.269Z,95437.44
2023-04-18T03:16:06.624Z,95447.66
2023-04-18T03:18:33.898Z,95441.97
2023-04-18T03:21:01.756Z,95438.09
2023-04-18T03:23:30.573Z,95433.66
2023-04-18T03:25:58.256Z,95433.66
2023-04-18T03:28:26.238Z,95439.22
2023-04-18T03:30:53.352Z,95443.34
2023-04-18T03:33:20.092Z,95438.56
2023-04-18T03:35:49.109Z,95438.06
2023-04-18T03:38:15.705Z,95436.44
2023-04-18T03:40:44.410Z,95442.28
2023-04-18T03:43:19.881Z,95434.16
2023-04-18T03:45:47.617Z,95430.88
2023-04-18T03:48:16.316Z,95436.94
2023-04-18T03:50:44.876Z,95431.50
2023-04-18T03:53:11.506Z,95429.88
2023-04-18T03:55:38.998Z,95438.47
2023-04-18T03:58:06.219Z,95434.47
2023-04-18T04:00:33.674Z,95439.25
2023-04-18T04:03:06.892Z,95436.22
2023-04-18T04:05:33.738Z,95437.19
2023-04-18T04:08:00.268Z,95438.94
2023-04-18T04:10:26.810Z,95435.16
2023-04-18T04:12:53.644Z,95443.25
2023-04-18T04:15:20.902Z,95437.53
2023-04-18T04:18:02.624Z,95436.22
2023-04-18T04:20:29.981Z,95443.25
2023-04-18T04:23:07.322Z,95443.09
2023-04-18T04:25:35.485Z,95441.59
2023-04-18T04:28:08.162Z,95444.44
2023-04-18T04:30:43.903Z,95443.16
2023-04-18T04:33:11.539Z,95449.53
2023-04-18T04:35:38.165Z,95450.84
2023-04-18T04:38:05.673Z,95445.91
2023-04-18T04:40:40.015Z,95446.88
2023-04-18T04:43:12.535Z,95451.50
2023-04-18T04:45:41.328Z,95448.22
2023-04-18T04:48:08.966Z,95446.56
2023-04-18T04:50:38.259Z,95448.84
2023-04-18T04:53:06.270Z,95447.69
2023-04-18T04:55:33.539Z,95445.41
2023-04-18T04:58:01.074Z,95450.34
2023-04-18T05:00:52.411Z,95453.47
2023-04-18T05:03:20.042Z,95456.09
2023-04-18T05:05:47.256Z,95454.31
2023-04-18T05:08:14.015Z,95468.09
2023-04-18T05:10:41.468Z,95458.59
2023-04-18T05:13:07.984Z,95461.06
2023-04-18T05:15:34.617Z,95464.81
2023-04-18T05:18:01.159Z,95449.34
2023-04-18T05:20:27.859Z,95460.50
2023-04-18T05:22:54.419Z,95458.22
2023-04-18T05:25:21.094Z,95455.38
2023-04-18T05:27:49.367Z,95456.91
2023-04-18T05:30:22.349Z,95459.03
2023-04-18T05:32:48.940Z,95465.75
2023-04-18T05:35:15.667Z,95465.56
2023-04-18T05:37:42.228Z,95464.59
2023-04-18T05:40:09.219Z,95460.59
2023-04-18T05:42:35.747Z,95459.41
2023-04-18T05:45:02.338Z,95459.28
2023-04-18T05:47:30.419Z,95462.03
2023-04-18T05:49:57.175Z,95462.38
2023-04-18T05:52:26.324Z,95472.19
2023-04-18T05:54:53.460Z,95466.53
2023-04-18T05:57:29.156Z,95469.25
2023-04-18T05:59:55.735Z,95475.00
2023-04-18T06:02:22.451Z,95472.66
2023-04-18T06:04:49.816Z,95482.63
2023-04-18T06:07:16.720Z,95482.41
2023-04-18T06:09:43.376Z,95492.38
2023-04-18T06:12:09.985Z,95488.34
2023-04-18T06:14:36.513Z,95489.75
2023-04-18T06:17:03.042Z,95492.06
2023-04-18T06:19:29.600Z,95495.41
2023-04-18T06:21:56.201Z,95496.13
2023-04-18T06:24:23.703Z,95493.44
2023-04-18T06:26:50.304Z,95497.56
2023-04-18T06:29:18.044Z,95504.06
2023-04-18T06:31:46.600Z,95501.44
2023-04-18T06:34:13.498Z,95496.44
2023-04-18T06:36:40.304Z,95513.22
2023-04-18T06:39:06.841Z,95502.84
2023-04-18T06:41:33.473Z,95506.13
2023-04-18T06:44:04.290Z,95510.72
2023-04-18T06:46:32.448Z,95513.41
2023-04-18T06:48:59.287Z,95513.66
2023-04-18T06:51:25.878Z,95511.03
2023-04-18T06:53:53.606Z,95509.66
2023-04-18T06:56:20.741Z,95512.00
2023-04-18T06:58:48.192Z,95512.94
2023-04-18T07:01:14.770Z,95511.56
2023-04-18T07:03:41.378Z,95510.97
2023-04-18T07:06:10.420Z,95511.84
2023-04-18T07:08:37.025Z,95511.84
2023-04-18T07:11:03.728Z,95506.00
2023-04-18T07:13:30.330Z,95510.66
2023-04-18T07:15:56.931Z,95505.91
2023-04-18T07:18:36.623Z,95508.09
2023-04-18T07:21:07.417Z,95507.53
2023-04-18T07:23:34.520Z,95506.00
2023-04-18T07:26:02.633Z,95515.03
2023-04-18T07:28:31.079Z,95513.50
2023-04-18T07:30:58.138Z,95502.44
2023-04-18T07:33:25.309Z,95511.47
2023-04-18T07:35:53.016Z,95509.47
2023-04-18T07:38:19.726Z,95507.66
2023-04-18T07:40:46.255Z,95506.28
2023-04-18T07:43:12.787Z,95509.34
2023-04-18T07:45:39.349Z,95515.56
2023-04-18T07:48:06.233Z,95508.75
2023-04-18T07:50:32.826Z,95515.38
2023-04-18T07:52:59.501Z,95513.75
2023-04-18T07:55:26.132Z,95508.94
2023-04-18T07:57:52.669Z,95507.31
2023-04-18T08:00:19.480Z,95501.94
2023-04-18T08:02:46.489Z,95500.53
2023-04-18T08:05:13.513Z,95507.25
2023-04-18T08:07:40.487Z,95511.72
2023-04-18T08:10:07.479Z,95509.06
2023-04-18T08:12:34.430Z,95512.41
2023-04-18T08:15:01.085Z,95518.06
2023-04-18T08:17:27.646Z,95523.69
2023-04-18T08:19:54.188Z,95530.44
2023-04-18T08:22:20.770Z,95531.50
2023-04-18T08:25:01.370Z,95530.31
2023-04-18T08:27:31.372Z,95529.63
2023-04-18T08:29:58.132Z,95535.38
2023-04-18T08:32:24.775Z,95535.25
2023-04-18T08:34:51.448Z,95536.59
2023-04-18T08:37:18.064Z,95537.81
2023-04-18T08:39:45.049Z,95533.13
2023-04-18T08:42:15.866Z,95536.19
2023-04-18T08:44:42.900Z,95539.13
2023-04-18T08:47:10.678Z,95547.53
2023-04-18T08:49:37.216Z,95551.16
2023-04-18T08:52:10.325Z,95550.19
2023-04-18T08:54:38.564Z,95556.09
2023-04-18T08:57:07.347Z,95552.03
2023-04-18T08:59:35.442Z,95561.25
2023-04-18T09:02:04.089Z,95565.63
2023-04-18T09:04:41.046Z,95567.19
2023-04-18T09:07:10.068Z,95567.91
2023-04-18T09:09:50.238Z,95567.56
2023-04-18T09:12:25.363Z,95567.03
2023-04-18T09:15:15.924Z,95573.78
2023-04-18T09:17:50.958Z,95573.38
2023-04-18T09:20:37.461Z,95576.69
2023-04-18T09:23:10.758Z,95572.81
2023-04-18T09:25:45.053Z,95560.94
2023-04-18T09:28:27.794Z,95562.94
2023-04-18T09:31:13.311Z,95565.81
2023-04-18T09:33:44.742Z,95568.19
2023-04-18T09:36:19.991Z,95557.88
2023-04-18T09:38:47.601Z,95564.00
2023-04-18T09:41:21.206Z,95563.19
2023-04-18T09:43:48.181Z,95571.81
2023-04-18T09:46:17.576Z,95565.91
2023-04-18T09:48:44.393Z,95563.09
2023-04-18T09:51:14.662Z,95561.38
2023-04-18T09:53:44.632Z,95569.13
2023-04-18T09:56:32.524Z,95560.63
2023-04-18T09:59:08.872Z,95564.78
2023-04-18T10:01:36.460Z,95555.94
2023-04-18T10:04:06.286Z,95561.00
2023-04-18T10:06:34.315Z,95563.56
2023-04-18T10:09:03.316Z,95558.69
2023-04-18T10:11:31.667Z,95564.63
2023-04-18T10:14:02.577Z,95558.19
2023-04-18T10:16:29.761Z,95558.28
2023-04-18T10:18:56.523Z,95545.81
2023-04-18T10:21:23.128Z,95555.03
2023-04-18T10:23:50.381Z,95556.75
2023-04-18T10:26:16.965Z,95550.91
2023-04-18T10:28:54.171Z,95561.03
2023-04-18T10:31:22.480Z,95545.81
2023-04-18T10:34:03.784Z,95549.91
2023-04-18T10:36:32.964Z,95535.13
2023-04-18T10:39:19.945Z,95542.66
2023-04-18T10:41:51.097Z,95544.91
2023-04-18T10:44:23.729Z,95551.94
2023-04-18T10:46:52.532Z,95544.44
2023-04-18T10:49:30.233Z,95546.78
2023-04-18T10:52:03.125Z,95546.59
2023-04-18T10:54:50.937Z,95542.47
2023-04-18T10:57:17.696Z,95551.59
2023-04-18T10:59:49.191Z,95550.22
2023-04-18T11:02:27.099Z,95540.31
2023-04-18T11:04:55.505Z,95537.81
2023-04-18T11:07:45.984Z,95537.88
2023-04-18T11:10:13.132Z,95541.38
2023-04-18T11:12:41.147Z,95537.72
2023-04-18T11:15:22.197Z,95536.31
2023-04-18T11:18:04.937Z,95540.84
2023-04-18T11:20:47.764Z,95541.09
2023-04-18T11:23:21.344Z,95537.63
2023-04-18T11:25:54.326Z,95541.00
2023-04-18T11:28:22.072Z,95546.91
2023-04-18T11:30:48.691Z,95538.81
2023-04-18T11:33:15.454Z,95552.41
2023-04-18T11:35:44.135Z,95538.31
2023-04-18T11:38:13.708Z,95529.19
2023-04-18T11:40:47.788Z,95539.88
2023-04-18T11:43:23.526Z,95538.47
2023-04-18T11:45:55.189Z,95550.28
2023-04-18T11:48:22.434Z,95548.31
2023-04-18T11:50:53.340Z,95550.38
2023-04-18T11:53:36.889Z,95549.75
2023-04-18T11:56:04.277Z,95542.38
2023-04-18T11:58:32.985Z,95539.38
2023-04-18T12:01:00.959Z,95539.13
2023-04-18T12:03:29.248Z,95546.56
2023-04-18T12:06:00.727Z,95540.31
2023-04-18T12:08:27.390Z,95542.00
2023-04-18T12:10:55.092Z,95529.84
2023-04-18T12:13:26.769Z,95541.72
2023-04-18T12:15:54.417Z,95543.25
2023-04-18T12:18:21.445Z,95544.97
2023-04-18T12:20:50.504Z,95543.94
2023-04-18T12:23:38.194Z,95544.66
2023-04-18T12:26:06.948Z,95539.31
2023-04-18T12:28:34.890Z,95541.56
2023-04-18T12:31:02.298Z,95545.41
2023-04-18T12:33:28.936Z,95546.03
2023-04-18T12:35:56.009Z,95553.56
2023-04-18T12:38:23.618Z,95540.22
2023-04-18T12:40:51.369Z,95543.13
2023-04-18T12:43:18.614Z,95538.69
2023-04-18T12:45:49.493Z,95537.75
2023-04-18T12:48:16.345Z,95535.28
2023-04-18T12:50:42.865Z,95541.13
2023-04-18T12:53:09.505Z,95541.50
2023-04-18T12:55:36.278Z,95540.09
2023-04-18T12:58:03.288Z,95539.41
2023-04-18T13:00:32.584Z,95541.28
2023-04-18T13:02:59.768Z,95544.25
2023-04-18T13:05:31.717Z,95543.94
2023-04-18T13:08:15.173Z,95545.13
2023-04-18T13:10:43.614Z,95541.06
2023-04-18T13:13:10.369Z,95544.16
2023-04-18T13:15:37.044Z,95541.78
2023-04-18T13:18:06.275Z,95537.69
2023-04-18T13:20:36.760Z,95542.84
2023-04-18T13:23:03.687Z,95546.22
2023-04-18T13:25:30.520Z,95540.06
2023-04-18T13:27:58.369Z,95538.81
2023-04-18T13:30:25.233Z,95538.78
2023-04-18T13:32:51.840Z,95538.97
2023-04-18T13:35:18.531Z,95539.25
2023-04-18T13:37:46.061Z,95537.19
2023-04-18T13:40:12.796Z,95544.19
2023-04-18T13:42:39.400Z,95543.91
2023-04-18T13:45:09.399Z,95546.25
2023-04-18T13:47:36.582Z,95542.50
2023-04-18T13:50:07.078Z,95546.38
2023-04-18T13:52:33.620Z,95544.03
2023-04-18T13:55:01.793Z,95545.19
2023-04-18T13:57:32.119Z,95546.63
2023-04-18T13:59:58.966Z,95548.59
2023-04-18T14:02:25.838Z,95547.34
2023-04-18T14:04:55.037Z,95547.22
2023-04-18T14:07:21.799Z,95557.75
2023-04-18T14:09:48.355Z,95561.50
2023-04-18T14:12:14.932Z,95555.88
2023-04-18T14:14:41.873Z,95568.00
2023-04-18T14:17:08.402Z,95563.06
2023-04-18T14:19:35.003Z,95565.66
2023-04-18T14:22:01.517Z,95570.16
2023-04-18T14:24:28.109Z,95571.31
2023-04-18T14:26:54.795Z,95575.97
2023-04-18T14:29:21.397Z,95571.41
2023-04-18T14:31:48.030Z,95577.28
2023-04-18T14:34:14.669Z,95581.59
2023-04-18T14:36:41.433Z,95573.38
2023-04-18T14:39:08.246Z,95571.81
2023-04-18T14:41:34.884Z,95573.03
2023-04-18T14:44:02.231Z,95564.00
2023-04-18T14:46:29.174Z,95569.34
2023-04-18T14:48:56.715Z,95573.72
2023-04-18T14:51:23.842Z,95581.56
2023-04-18T14:53:51.217Z,95575.13
2023-04-18T14:56:37.164Z,95585.88
2023-04-18T14:59:03.927Z,95575.06
2023-04-18T15:01:30.711Z,95580.44
2023-04-18T15:03:57.528Z,95574.44
2023-04-18T15:06:24.306Z,95581.28
2023-04-18T15:08:52.986Z,95580.41
2023-04-18T15:11:20.239Z,95579.81
2023-04-18T15:13:47.594Z,95584.91
2023-04-18T15:16:14.560Z,95583.41
2023-04-18T15:18:41.618Z,95581.72
2023-04-18T15:21:08.630Z,95584.94
2023-04-18T15:23:35.267Z,95579.91
2023-04-18T15:26:02.252Z,95583.34
2023-04-18T15:28:28.990Z,95581.91
2023-04-18T15:30:58.658Z,95584.31
2023-04-18T15:33:26.016Z,95578.94
2023-04-18T15:35:52.605Z,95584.84
2023-04-18T15:38:28.244Z,95589.06
2023-04-18T15:40:54.842Z,95594.56
2023-04-18T15:43:21.418Z,95582.72
2023-04-18T15:45:48.262Z,95587.28
2023-04-18T15:48:14.861Z,95592.22
2023-04-18T15:50:42.243Z,95592.84
2023-04-18T15:53:08.781Z,95598.00
2023-04-18T15:55:38.146Z,95598.44
2023-04-18T15:58:05.009Z,95599.53
2023-04-18T16:00:31.573Z,95598.47
2023-04-18T16:02:58.279Z,95595.50
2023-04-18T16:05:25.081Z,95606.34
2023-04-18T16:07:53.719Z,95605.22
2023-04-18T16:10:20.488Z,95594.34
2023-04-18T16:12:47.181Z,95602.59
2023-04-18T16:15:13.721Z,95599.31
2023-04-18T16:17:40.310Z,95598.09
2023-04-18T16:20:08.894Z,95593.97
2023-04-18T16:22:36.397Z,95593.72
2023-04-18T16:25:04.100Z,95588.84
2023-04-18T16:27:30.633Z,95595.06
2023-04-18T16:29:57.288Z,95591.38
2023-04-18T16:32:23.870Z,95588.53
2023-04-18T16:34:50.553Z,95590.53
2023-04-18T16:37:17.319Z,95588.09
2023-04-18T16:39:43.981Z,95591.38
2023-04-18T16:42:11.044Z,95580.66
2023-04-18T16:44:39.330Z,95587.13
2023-04-18T16:47:08.105Z,95591.44
2023-04-18T16:49:34.734Z,95595.25
2023-04-18T16:52:01.793Z,95590.59
2023-04-18T16:54:28.352Z,95589.91
2023-04-18T16:56:54.892Z,95596.50
2023-04-18T16:59:21.539Z,95593.97
2023-04-18T17:01:48.130Z,95594.03
2023-04-18T17:04:15.518Z,95600.38
2023-04-18T17:06:43.612Z,95596.69
2023-04-18T17:09:13.354Z,95604.22
2023-04-18T17:11:41.002Z,95608.28
2023-04-18T17:14:08.610Z,95604.03
2023-04-18T17:16:37.685Z,95604.94
2023-04-18T17:19:04.723Z,95609.34
2023-04-18T17:21:31.805Z,95607.53
2023-04-18T17:24:01.700Z,95611.16
2023-04-18T17:26:28.246Z,95606.22
2023-04-18T17:28:54.825Z,95615.00
2023-04-18T17:31:21.459Z,95621.47
2023-04-18T17:33:50.647Z,95610.78
2023-04-18T17:36:17.622Z,95608.75
2023-04-18T17:38:50.269Z,95616.19
2023-04-18T17:41:18.742Z,95619.97
2023-04-18T17:43:45.899Z,95621.25
2023-04-18T17:46:13.627Z,95625.56
2023-04-18T17:48:40.970Z,95631.47
2023-04-18T17:51:07.503Z,95637.00
2023-04-18T17:53:34.079Z,95637.84
2023-04-18T17:56:00.793Z,95628.66
2023-04-18T17:58:28.021Z,95639.50
2023-04-18T18:00:54.561Z,95638.38
2023-04-18T18:03:21.352Z,95633.41
2023-04-18T18:05:49.353Z,95638.47
2023-04-18T18:08:15.924Z,95646.44
2023-04-18T18:10:42.855Z,95647.44
2023-04-18T18:13:09.360Z,95644.56
2023-04-18T18:15:35.888Z,95642.72
2023-04-18T18:18:02.542Z,95651.84
2023-04-18T18:20:29.329Z,95659.16
2023-04-18T18:22:57.074Z,95655.00
2023-04-18T18:25:23.617Z,95664.16
2023-04-18T18:27:51.222Z,95658.78
2023-04-18T18:30:18.821Z,95660.47
2023-04-18T18:32:45.438Z,95664.41
2023-04-18T18:35:12.479Z,95662.34
2023-04-18T18:37:39.017Z,95673.28
2023-04-18T18:40:06.524Z,95669.38
2023-04-18T18:42:33.046Z,95671.50
2023-04-18T18:45:01.410Z,95672.84
2023-04-18T18:47:28.324Z,95675.34
2023-04-18T18:49:54.906Z,95673.38
2023-04-18T18:52:21.731Z,95676.44
2023-04-18T18:54:48.323Z,95678.97
2023-04-18T18:57:15.011Z,95681.06
2023-04-18T18:59:42.483Z,95683.53
2023-04-18T19:02:09.097Z,95680.25
2023-04-18T19:04:35.815Z,95688.41
2023-04-18T19:07:02.424Z,95682.53
2023-04-18T19:09:28.999Z,95687.94
2023-04-18T19:11:56.796Z,95692.28
2023-04-18T19:14:23.379Z,95689.56
2023-04-18T19:16:50.566Z,95694.69
2023-04-18T19:19:17.545Z,95694.19
2023-04-18T19:21:45.922Z,95693.16
2023-04-18T19:24:13.124Z,95688.06
2023-04-18T19:26:39.786Z,95691.34
2023-04-18T19:29:07.626Z,95695.78
2023-04-18T19:31:34.959Z,95693.28
2023-04-18T19:34:01.791Z,95690.47
2023-04-18T19:36:28.396Z,95697.50
2023-04-18T19:38:54.908Z,95689.88
2023-04-18T19:41:21.659Z,95689.28
2023-04-18T19:43:48.479Z,95696.03
2023-04-18T19:46:15.305Z,95697.00
2023-04-18T19:48:42.007Z,95685.00
2023-04-18T19:51:08.523Z,95696.88
2023-04-18T19:53:36.419Z,95691.94
2023-04-18T19:56:03.024Z,95690.44
2023-04-18T19:58:44.903Z,95693.38
2023-04-18T20:01:12.560Z,95692.06
2023-04-18T20:03:39.623Z,95690.75
2023-04-18T20:06:06.898Z,95693.00
2023-04-18T20:08:38.142Z,95694.66
2023-04-18T20:11:07.747Z,95699.59
2023-04-18T20:13:36.518Z,95691.41
2023-04-18T20:16:04.874Z,95693.69
2023-04-18T20:18:32.107Z,95698.56
2023-04-18T20:20:58.654Z,95691.19
2023-04-18T20:23:25.534Z,95689.88
2023-04-18T20:25:52.081Z,95691.63
2023-04-18T20:28:18.598Z,95690.38
2023-04-18T20:30:45.633Z,95689.22
2023-04-18T20:33:12.403Z,95689.09
2023-04-18T20:35:38.952Z,95687.41
2023-04-18T20:38:06.571Z,95686.78
2023-04-18T20:40:34.124Z,95695.00
2023-04-18T20:43:04.457Z,95688.06
2023-04-18T20:45:31.784Z,95684.31
2023-04-18T20:47:58.511Z,95689.16
2023-04-18T20:50:25.027Z,95693.84
2023-04-18T20:52:51.563Z,95687.34
2023-04-18T20:55:18.223Z,95686.75
2023-04-18T20:57:44.808Z,95685.66
2023-04-18T21:00:13.900Z,95687.81
2023-04-18T21:02:41.570Z,95689.97
2023-04-18T21:05:08.687Z,95686.47
2023-04-18T21:07:35.849Z,95689.78
2023-04-18T21:10:03.554Z,95698.09
2023-04-18T21:12:30.180Z,95693.25
2023-04-18T21:14:56.711Z,95694.78
2023-04-18T21:17:25.352Z,95693.25
2023-04-18T21:19:52.322Z,95685.06
2023-04-18T21:22:18.895Z,95692.06
2023-04-18T21:24:46.696Z,95691.78
2023-04-18T21:27:13.340Z,95691.63
2023-04-18T21:29:40.757Z,95695.34
2023-04-18T21:32:07.287Z,95697.00
2023-04-18T21:34:33.838Z,95697.19
2023-04-18T21:37:00.685Z,95700.00
2023-04-18T21:39:27.623Z,95693.41
2023-04-18T21:41:54.170Z,95697.50
2023-04-18T21:44:20.743Z,95702.19
2023-04-18T21:46:47.251Z,95693.13
2023-04-18T21:49:13.779Z,95690.06
2023-04-18T21:51:40.387Z,95689.97
2023-04-18T21:54:09.780Z,95689.31
2023-04-18T21:56:36.330Z,95685.03
2023-04-18T21:59:02.851Z,95689.16
2023-04-18T22:01:29.508Z,95689.66
2023-04-18T22:03:56.173Z,95691.84
2023-04-18T22:06:23.238Z,95686.00
2023-04-18T22:08:50.032Z,95694.75
2023-04-18T22:11:16.596Z,95692.97
2023-04-18T22:13:44.678Z,95695.16
2023-04-18T22:16:11.779Z,95687.69
2023-04-18T22:18:38.483Z,95690.03
2023-04-18T22:21:05.041Z,95686.06
2023-04-18T22:23:31.627Z,95687.06
2023-04-18T22:25:58.214Z,95678.66
2023-04-18T22:28:24.848Z,95680.13
2023-04-18T22:30:51.394Z,95683.25
2023-04-18T22:33:18.067Z,95680.97
2023-04-18T22:35:44.615Z,95681.13
2023-04-18T22:38:11.291Z,95681.44
2023-04-18T22:40:37.818Z,95687.41
2023-04-18T22:43:04.344Z,95688.06
2023-04-18T22:45:31.116Z,95679.97
2023-04-18T22:47:57.744Z,95689.09
2023-04-18T22:50:24.299Z,95683.09
2023-04-18T22:52:51.007Z,95689.72
2023-04-18T22:55:17.588Z,95682.97
2023-04-18T22:57:44.084Z,95681.47
2023-04-18T23:00:11.285Z,95683.53
2023-04-18T23:02:38.027Z,95682.75
2023-04-18T23:05:06.798Z,95678.00
2023-04-18T23:07:33.306Z,95679.69
2023-04-18T23:09:59.820Z,95681.81
2023-04-18T23:12:26.778Z,95683.47
2023-04-18T23:14:53.332Z,95681.75
2023-04-18T23:17:19.944Z,95673.47
2023-04-18T23:19:46.464Z,95676.59
2023-04-18T23:22:13.008Z,95674.59
2023-04-18T23:24:39.621Z,95673.09
2023-04-18T23:27:06.273Z,95673.97
2023-04-18T23:29:37.139Z,95671.31
2023-04-18T23:32:03.863Z,95673.63
2023-04-18T23:34:30.514Z,95681.66
2023-04-18T23:36:57.026Z,95672.94
2023-04-18T23:39:26.106Z,95666.84
2023-04-18T23:41:52.685Z,95672.59
2023-04-18T23:44:19.197Z,95663.72
2023-04-18T23:46:45.923Z,95663.19
2023-04-18T23:49:12.461Z,95663.91
2023-04-18T23:51:39.011Z,95658.28
2023-04-18T23:54:05.624Z,95657.25
2023-04-18T23:56:32.222Z,95656.13
2023-04-18T23:58:58.787Z,95659.34
